sensor_id;sensor_type;location;lat;lon;timestamp;pressure;altitude;pressure_sealevel;temperature;humidity
58018;BME280;43810;50.860;19.226;2024-01-10T00:01:56;100277.00;;;-16.51;96.48
58018;BME280;43810;50.860;19.226;2024-01-10T00:04:22;100275.16;;;-16.49;95.83
58018;BME280;43810;50.860;19.226;2024-01-10T00:06:47;100269.84;;;-16.46;95.75
58018;BME280;43810;50.860;19.226;2024-01-10T00:09:13;100280.72;;;-16.44;95.41
58018;BME280;43810;50.860;19.226;2024-01-10T00:11:39;100268.66;;;-16.42;95.87
58018;BME280;43810;50.860;19.226;2024-01-10T00:14:05;100276.88;;;-16.38;95.87
58018;BME280;43810;50.860;19.226;2024-01-10T00:16:31;100283.59;;;-16.48;95.65
58018;BME280;43810;50.860;19.226;2024-01-10T00:18:56;100274.69;;;-16.54;95.20
58018;BME280;43810;50.860;19.226;2024-01-10T00:21:22;100261.28;;;-16.45;95.36
58018;BME280;43810;50.860;19.226;2024-01-10T00:23:48;100266.72;;;-16.38;95.44
58018;BME280;43810;50.860;19.226;2024-01-10T00:26:14;100271.34;;;-16.32;95.57
58018;BME280;43810;50.860;19.226;2024-01-10T00:28:41;100273.53;;;-16.28;96.18
58018;BME280;43810;50.860;19.226;2024-01-10T00:31:06;100260.59;;;-16.36;96.05
58018;BME280;43810;50.860;19.226;2024-01-10T00:33:32;100259.78;;;-16.47;95.56
58018;BME280;43810;50.860;19.226;2024-01-10T00:35:58;100257.81;;;-16.55;95.15
58018;BME280;43810;50.860;19.226;2024-01-10T00:38:24;100267.28;;;-16.46;95.10
58018;BME280;43810;50.860;19.226;2024-01-10T00:40:49;100266.59;;;-16.48;95.18
58018;BME280;43810;50.860;19.226;2024-01-10T00:43:15;100274.94;;;-16.35;95.59
58018;BME280;43810;50.860;19.226;2024-01-10T00:45:41;100287.28;;;-16.30;95.74
58018;BME280;43810;50.860;19.226;2024-01-10T00:48:07;100287.19;;;-16.29;95.57
58018;BME280;43810;50.860;19.226;2024-01-10T00:50:33;100286.03;;;-16.36;95.02
58018;BME280;43810;50.860;19.226;2024-01-10T00:52:59;100303.03;;;-16.47;94.60
58018;BME280;43810;50.860;19.226;2024-01-10T00:55:24;100303.34;;;-16.63;94.32
58018;BME280;43810;50.860;19.226;2024-01-10T00:57:50;100287.13;;;-16.84;93.24
58018;BME280;43810;50.860;19.226;2024-01-10T01:00:16;100297.41;;;-16.86;93.35
58018;BME280;43810;50.860;19.226;2024-01-10T01:02:42;100285.75;;;-16.88;94.00
58018;BME280;43810;50.860;19.226;2024-01-10T01:05:07;100302.84;;;-16.90;93.97
58018;BME280;43810;50.860;19.226;2024-01-10T01:07:34;100299.50;;;-16.91;94.71
58018;BME280;43810;50.860;19.226;2024-01-10T01:09:59;100304.34;;;-16.88;95.13
58018;BME280;43810;50.860;19.226;2024-01-10T01:12:26;100303.31;;;-16.85;95.14
58018;BME280;43810;50.860;19.226;2024-01-10T01:14:51;100312.03;;;-16.77;96.05
58018;BME280;43810;50.860;19.226;2024-01-10T01:17:17;100315.25;;;-16.75;96.00
58018;BME280;43810;50.860;19.226;2024-01-10T01:19:43;100298.16;;;-16.73;96.46
58018;BME280;43810;50.860;19.226;2024-01-10T01:22:09;100298.75;;;-16.69;95.88
58018;BME280;43810;50.860;19.226;2024-01-10T01:24:34;100295.72;;;-16.63;96.39
58018;BME280;43810;50.860;19.226;2024-01-10T01:27:00;100295.97;;;-16.55;96.21
58018;BME280;43810;50.860;19.226;2024-01-10T01:29:26;100280.72;;;-16.44;97.10
58018;BME280;43810;50.860;19.226;2024-01-10T01:31:53;100275.84;;;-16.36;96.93
58018;BME280;43810;50.860;19.226;2024-01-10T01:34:19;100280.72;;;-16.21;98.14
58018;BME280;43810;50.860;19.226;2024-01-10T01:36:45;100287.66;;;-16.12;97.90
58018;BME280;43810;50.860;19.226;2024-01-10T01:39:11;100269.94;;;-16.14;98.28
58018;BME280;43810;50.860;19.226;2024-01-10T01:41:39;100281.16;;;-16.05;97.60
58018;BME280;43810;50.860;19.226;2024-01-10T01:44:05;100276.44;;;-16.10;97.64
58018;BME280;43810;50.860;19.226;2024-01-10T01:46:32;100280.72;;;-16.10;97.18
58018;BME280;43810;50.860;19.226;2024-01-10T01:48:58;100271.09;;;-16.07;97.08
58018;BME280;43810;50.860;19.226;2024-01-10T01:51:26;100265.66;;;-16.02;97.26
58018;BME280;43810;50.860;19.226;2024-01-10T01:53:54;100262.78;;;-15.98;97.34
58018;BME280;43810;50.860;19.226;2024-01-10T01:56:20;100267.97;;;-15.99;97.97
58018;BME280;43810;50.860;19.226;2024-01-10T01:58:46;100263.34;;;-16.05;97.65
58018;BME280;43810;50.860;19.226;2024-01-10T02:01:14;100255.25;;;-16.10;97.00
58018;BME280;43810;50.860;19.226;2024-01-10T02:03:40;100262.69;;;-16.07;97.32
58018;BME280;43810;50.860;19.226;2024-01-10T02:06:06;100263.59;;;-15.97;97.21
58018;BME280;43810;50.860;19.226;2024-01-10T02:08:33;100248.75;;;-15.92;97.57
58018;BME280;43810;50.860;19.226;2024-01-10T02:11:03;100253.84;;;-15.92;97.51
58018;BME280;43810;50.860;19.226;2024-01-10T02:13:29;100254.88;;;-15.95;97.04
58018;BME280;43810;50.860;19.226;2024-01-10T02:15:58;100243.78;;;-15.94;97.54
58018;BME280;43810;50.860;19.226;2024-01-10T02:18:23;100247.00;;;-15.92;97.46
58018;BME280;43810;50.860;19.226;2024-01-10T02:20:50;100242.63;;;-15.90;98.02
58018;BME280;43810;50.860;19.226;2024-01-10T02:23:15;100234.06;;;-15.89;97.58
58018;BME280;43810;50.860;19.226;2024-01-10T02:25:42;100241.09;;;-15.81;98.39
58018;BME280;43810;50.860;19.226;2024-01-10T02:28:07;100238.63;;;-15.71;98.10
58018;BME280;43810;50.860;19.226;2024-01-10T02:30:35;100235.50;;;-15.64;98.10
58018;BME280;43810;50.860;19.226;2024-01-10T02:33:01;100225.00;;;-15.61;98.42
58018;BME280;43810;50.860;19.226;2024-01-10T02:35:27;100232.63;;;-15.50;98.89
58018;BME280;43810;50.860;19.226;2024-01-10T02:37:53;100230.81;;;-15.38;99.07
58018;BME280;43810;50.860;19.226;2024-01-10T02:40:23;100223.81;;;-15.25;99.74
58018;BME280;43810;50.860;19.226;2024-01-10T02:42:48;100220.16;;;-15.11;100.00
58018;BME280;43810;50.860;19.226;2024-01-10T02:45:17;100225.22;;;-15.00;99.71
58018;BME280;43810;50.860;19.226;2024-01-10T02:47:43;100224.31;;;-14.89;100.00
58018;BME280;43810;50.860;19.226;2024-01-10T02:50:09;100225.81;;;-14.87;99.35
58018;BME280;43810;50.860;19.226;2024-01-10T02:52:34;100230.00;;;-14.86;99.87
58018;BME280;43810;50.860;19.226;2024-01-10T02:55:00;100234.72;;;-14.81;99.41
58018;BME280;43810;50.860;19.226;2024-01-10T02:57:26;100230.16;;;-14.78;99.42
58018;BME280;43810;50.860;19.226;2024-01-10T02:59:52;100221.72;;;-14.78;99.32
58018;BME280;43810;50.860;19.226;2024-01-10T03:02:18;100218.06;;;-14.85;99.28
58018;BME280;43810;50.860;19.226;2024-01-10T03:04:44;100220.59;;;-14.85;99.04
58018;BME280;43810;50.860;19.226;2024-01-10T03:07:10;100221.16;;;-14.82;98.71
58018;BME280;43810;50.860;19.226;2024-01-10T03:09:36;100219.56;;;-14.83;98.65
58018;BME280;43810;50.860;19.226;2024-01-10T03:12:02;100229.47;;;-14.80;99.11
58018;BME280;43810;50.860;19.226;2024-01-10T03:14:28;100228.00;;;-14.82;98.51
58018;BME280;43810;50.860;19.226;2024-01-10T03:16:54;100232.44;;;-14.84;99.13
58018;BME280;43810;50.860;19.226;2024-01-10T03:19:19;100229.63;;;-14.81;98.89
58018;BME280;43810;50.860;19.226;2024-01-10T03:21:45;100225.94;;;-14.88;98.39
58018;BME280;43810;50.860;19.226;2024-01-10T03:24:11;100229.69;;;-14.92;98.21
58018;BME280;43810;50.860;19.226;2024-01-10T03:26:37;100221.47;;;-14.96;98.11
58018;BME280;43810;50.860;19.226;2024-01-10T03:29:03;100222.31;;;-15.16;96.61
58018;BME280;43810;50.860;19.226;2024-01-10T03:31:29;100209.63;;;-15.27;96.00
58018;BME280;43810;50.860;19.226;2024-01-10T03:33:56;100224.09;;;-15.28;97.25
58018;BME280;43810;50.860;19.226;2024-01-10T03:36:23;100222.34;;;-15.27;96.91
58018;BME280;43810;50.860;19.226;2024-01-10T03:38:50;100219.59;;;-15.35;96.94
58018;BME280;43810;50.860;19.226;2024-01-10T03:41:20;100219.69;;;-15.58;95.85
58018;BME280;43810;50.860;19.226;2024-01-10T03:43:46;100218.03;;;-15.68;95.14
58018;BME280;43810;50.860;19.226;2024-01-10T03:46:12;100222.69;;;-15.73;96.14
58018;BME280;43810;50.860;19.226;2024-01-10T03:48:39;100209.13;;;-15.74;96.08
58018;BME280;43810;50.860;19.226;2024-01-10T03:51:16;100208.88;;;-15.71;96.96
58018;BME280;43810;50.860;19.226;2024-01-10T03:53:43;100215.69;;;-15.71;96.71
58018;BME280;43810;50.860;19.226;2024-01-10T03:56:09;100215.59;;;-15.70;96.97
58018;BME280;43810;50.860;19.226;2024-01-10T03:58:35;100213.53;;;-15.76;96.91
58018;BME280;43810;50.860;19.226;2024-01-10T04:01:05;100205.19;;;-15.78;97.21
58018;BME280;43810;50.860;19.226;2024-01-10T04:03:32;100205.19;;;-15.78;96.80
58018;BME280;43810;50.860;19.226;2024-01-10T04:05:58;100202.19;;;-15.83;96.73
58018;BME280;43810;50.860;19.226;2024-01-10T04:08:24;100211.59;;;-15.95;95.89
58018;BME280;43810;50.860;19.226;2024-01-10T04:10:50;100209.88;;;-15.94;96.42
58018;BME280;43810;50.860;19.226;2024-01-10T04:13:16;100204.34;;;-15.99;96.26
58018;BME280;43810;50.860;19.226;2024-01-10T04:15:41;100212.44;;;-16.05;96.41
58018;BME280;43810;50.860;19.226;2024-01-10T04:18:07;100205.41;;;-16.13;96.41
58018;BME280;43810;50.860;19.226;2024-01-10T04:20:33;100203.78;;;-16.14;96.20
58018;BME280;43810;50.860;19.226;2024-01-10T04:22:59;100200.00;;;-16.19;95.86
58018;BME280;43810;50.860;19.226;2024-01-10T04:25:24;100201.38;;;-16.38;94.77
58018;BME280;43810;50.860;19.226;2024-01-10T04:27:50;100197.81;;;-16.46;94.50
58018;BME280;43810;50.860;19.226;2024-01-10T04:30:16;100205.56;;;-16.59;94.40
58018;BME280;43810;50.860;19.226;2024-01-10T04:32:42;100198.28;;;-16.75;93.09
58018;BME280;43810;50.860;19.226;2024-01-10T04:35:07;100198.44;;;-16.65;93.93
58018;BME280;43810;50.860;19.226;2024-01-10T04:37:33;100203.72;;;-16.57;93.91
58018;BME280;43810;50.860;19.226;2024-01-10T04:39:59;100205.31;;;-16.45;94.33
58018;BME280;43810;50.860;19.226;2024-01-10T04:42:25;100204.50;;;-16.45;94.89
58018;BME280;43810;50.860;19.226;2024-01-10T04:44:50;100202.78;;;-16.56;94.08
58018;BME280;43810;50.860;19.226;2024-01-10T04:47:16;100199.09;;;-16.74;92.87
58018;BME280;43810;50.860;19.226;2024-01-10T04:49:42;100207.19;;;-16.80;93.28
58018;BME280;43810;50.860;19.226;2024-01-10T04:52:08;100214.09;;;-16.93;92.86
58018;BME280;43810;50.860;19.226;2024-01-10T04:54:34;100197.69;;;-17.01;92.52
58018;BME280;43810;50.860;19.226;2024-01-10T04:57:00;100193.53;;;-17.02;93.47
58018;BME280;43810;50.860;19.226;2024-01-10T04:59:25;100208.31;;;-16.95;93.82
58018;BME280;43810;50.860;19.226;2024-01-10T05:01:51;100210.66;;;-16.92;94.48
58018;BME280;43810;50.860;19.226;2024-01-10T05:04:17;100204.16;;;-16.85;94.28
58018;BME280;43810;50.860;19.226;2024-01-10T05:06:43;100206.47;;;-16.93;94.40
58018;BME280;43810;50.860;19.226;2024-01-10T05:09:08;100214.91;;;-16.93;94.27
58018;BME280;43810;50.860;19.226;2024-01-10T05:11:36;100214.56;;;-17.00;93.96
58018;BME280;43810;50.860;19.226;2024-01-10T05:14:02;100205.75;;;-17.07;93.86
58018;BME280;43810;50.860;19.226;2024-01-10T05:16:28;100201.38;;;-17.05;94.01
58018;BME280;43810;50.860;19.226;2024-01-10T05:18:54;100206.69;;;-16.96;94.48
58018;BME280;43810;50.860;19.226;2024-01-10T05:21:20;100205.44;;;-16.91;94.83
58018;BME280;43810;50.860;19.226;2024-01-10T05:23:46;100211.56;;;-16.93;94.12
58018;BME280;43810;50.860;19.226;2024-01-10T05:26:12;100210.41;;;-17.01;94.22
58018;BME280;43810;50.860;19.226;2024-01-10T05:28:37;100211.31;;;-17.02;94.52
58018;BME280;43810;50.860;19.226;2024-01-10T05:31:04;100210.03;;;-17.07;94.26
58018;BME280;43810;50.860;19.226;2024-01-10T05:33:30;100208.09;;;-17.04;94.74
58018;BME280;43810;50.860;19.226;2024-01-10T05:35:56;100213.75;;;-17.00;94.77
58018;BME280;43810;50.860;19.226;2024-01-10T05:38:21;100212.47;;;-16.94;95.38
58018;BME280;43810;50.860;19.226;2024-01-10T05:40:47;100228.88;;;-16.87;94.79
58018;BME280;43810;50.860;19.226;2024-01-10T05:43:13;100222.44;;;-16.91;94.79
58018;BME280;43810;50.860;19.226;2024-01-10T05:45:39;100230.06;;;-16.91;94.29
58018;BME280;43810;50.860;19.226;2024-01-10T05:48:05;100240.69;;;-16.86;94.70
58018;BME280;43810;50.860;19.226;2024-01-10T05:50:32;100245.53;;;-16.94;94.16
58018;BME280;43810;50.860;19.226;2024-01-10T05:52:57;100240.19;;;-17.03;94.33
58018;BME280;43810;50.860;19.226;2024-01-10T05:55:23;100237.19;;;-17.08;94.23
58018;BME280;43810;50.860;19.226;2024-01-10T05:57:49;100232.91;;;-17.07;94.54
58018;BME280;43810;50.860;19.226;2024-01-10T06:00:16;100225.16;;;-17.06;94.36
58018;BME280;43810;50.860;19.226;2024-01-10T06:02:42;100220.91;;;-17.05;93.97
58018;BME280;43810;50.860;19.226;2024-01-10T06:05:10;100226.91;;;-16.95;94.65
58018;BME280;43810;50.860;19.226;2024-01-10T06:07:39;100209.97;;;-16.83;95.30
58018;BME280;43810;50.860;19.226;2024-01-10T06:10:09;100212.28;;;-16.69;95.91
58018;BME280;43810;50.860;19.226;2024-01-10T06:12:35;100203.00;;;-16.48;96.72
58018;BME280;43810;50.860;19.226;2024-01-10T06:15:02;100205.75;;;-16.29;97.55
58018;BME280;43810;50.860;19.226;2024-01-10T06:17:28;100205.16;;;-16.10;98.51
58018;BME280;43810;50.860;19.226;2024-01-10T06:19:54;100218.69;;;-15.98;98.79
58018;BME280;43810;50.860;19.226;2024-01-10T06:22:19;100215.75;;;-15.94;98.03
58018;BME280;43810;50.860;19.226;2024-01-10T06:24:50;100211.25;;;-15.90;97.96
58018;BME280;43810;50.860;19.226;2024-01-10T06:27:16;100219.78;;;-15.80;98.16
58018;BME280;43810;50.860;19.226;2024-01-10T06:29:44;100217.66;;;-15.64;99.58
58018;BME280;43810;50.860;19.226;2024-01-10T06:32:13;100216.41;;;-15.48;99.72
58018;BME280;43810;50.860;19.226;2024-01-10T06:34:40;100210.94;;;-15.44;99.61
58018;BME280;43810;50.860;19.226;2024-01-10T06:37:06;100209.22;;;-15.43;99.48
58018;BME280;43810;50.860;19.226;2024-01-10T06:39:33;100211.88;;;-15.45;99.25
58018;BME280;43810;50.860;19.226;2024-01-10T06:41:59;100215.94;;;-15.42;99.29
58018;BME280;43810;50.860;19.226;2024-01-10T06:44:25;100209.66;;;-15.38;98.84
58018;BME280;43810;50.860;19.226;2024-01-10T06:46:54;100199.31;;;-15.37;98.63
58018;BME280;43810;50.860;19.226;2024-01-10T06:49:20;100206.09;;;-15.26;98.97
58018;BME280;43810;50.860;19.226;2024-01-10T06:51:45;100200.41;;;-15.19;99.77
58018;BME280;43810;50.860;19.226;2024-01-10T06:54:11;100198.72;;;-15.08;99.96
58018;BME280;43810;50.860;19.226;2024-01-10T06:56:37;100203.25;;;-14.91;99.93
58018;BME280;43810;50.860;19.226;2024-01-10T06:59:03;100196.47;;;-14.81;100.00
58018;BME280;43810;50.860;19.226;2024-01-10T07:01:29;100194.91;;;-14.72;100.00
58018;BME280;43810;50.860;19.226;2024-01-10T07:03:55;100187.28;;;-14.63;100.00
58018;BME280;43810;50.860;19.226;2024-01-10T07:06:21;100198.63;;;-14.46;100.00
58018;BME280;43810;50.860;19.226;2024-01-10T07:08:49;100197.16;;;-14.39;100.00
58018;BME280;43810;50.860;19.226;2024-01-10T07:11:16;100188.84;;;-14.31;100.00
58018;BME280;43810;50.860;19.226;2024-01-10T07:13:42;100193.56;;;-14.27;100.00
58018;BME280;43810;50.860;19.226;2024-01-10T07:28:01;100184.66;;;-13.63;99.07
58018;BME280;43810;50.860;19.226;2024-01-10T07:30:27;100183.56;;;-13.61;99.06
58018;BME280;43810;50.860;19.226;2024-01-10T07:32:53;100180.34;;;-13.53;99.20
58018;BME280;43810;50.860;19.226;2024-01-10T07:35:18;100180.06;;;-13.41;99.61
58018;BME280;43810;50.860;19.226;2024-01-10T07:37:46;100196.03;;;-13.29;99.13
58018;BME280;43810;50.860;19.226;2024-01-10T07:40:12;100188.38;;;-13.19;99.06
58018;BME280;43810;50.860;19.226;2024-01-10T07:42:38;100176.38;;;-13.09;98.95
58018;BME280;43810;50.860;19.226;2024-01-10T07:45:06;100177.28;;;-12.91;98.16
58018;BME280;43810;50.860;19.226;2024-01-10T07:47:32;100165.25;;;-12.81;97.79
58018;BME280;43810;50.860;19.226;2024-01-10T07:49:59;100164.00;;;-12.67;97.34
58018;BME280;43810;50.860;19.226;2024-01-10T07:52:26;100165.03;;;-12.50;96.93
58018;BME280;43810;50.860;19.226;2024-01-10T07:54:54;100164.84;;;-12.39;96.69
58018;BME280;43810;50.860;19.226;2024-01-10T07:57:26;100160.47;;;-12.29;96.57
58018;BME280;43810;50.860;19.226;2024-01-10T07:59:53;100161.88;;;-12.17;96.34
58018;BME280;43810;50.860;19.226;2024-01-10T08:02:18;100166.78;;;-12.06;95.66
58018;BME280;43810;50.860;19.226;2024-01-10T08:04:47;100165.75;;;-11.95;95.10
58018;BME280;43810;50.860;19.226;2024-01-10T08:07:13;100162.19;;;-11.85;94.71
58018;BME280;43810;50.860;19.226;2024-01-10T08:09:39;100166.28;;;-11.74;94.76
58018;BME280;43810;50.860;19.226;2024-01-10T08:12:05;100165.78;;;-11.60;94.81
58018;BME280;43810;50.860;19.226;2024-01-10T08:14:31;100164.88;;;-11.51;94.54
58018;BME280;43810;50.860;19.226;2024-01-10T08:16:56;100163.69;;;-11.38;94.84
58018;BME280;43810;50.860;19.226;2024-01-10T08:19:31;100166.56;;;-11.24;94.68
58018;BME280;43810;50.860;19.226;2024-01-10T08:22:17;100165.34;;;-11.12;93.77
58018;BME280;43810;50.860;19.226;2024-01-10T08:24:48;100181.34;;;-10.92;93.53
58018;BME280;43810;50.860;19.226;2024-01-10T08:27:19;100179.50;;;-10.82;92.96
58018;BME280;43810;50.860;19.226;2024-01-10T08:30:32;100176.22;;;-10.58;93.67
58018;BME280;43810;50.860;19.226;2024-01-10T08:33:09;100181.75;;;-10.45;93.04
58018;BME280;43810;50.860;19.226;2024-01-10T08:35:40;100178.56;;;-10.30;93.74
58018;BME280;43810;50.860;19.226;2024-01-10T08:38:11;100178.78;;;-10.16;93.81
58018;BME280;43810;50.860;19.226;2024-01-10T08:40:52;100191.19;;;-10.11;91.78
58018;BME280;43810;50.860;19.226;2024-01-10T08:43:30;100182.19;;;-10.07;91.27
58018;BME280;43810;50.860;19.226;2024-01-10T08:45:56;100196.03;;;-10.00;90.54
58018;BME280;43810;50.860;19.226;2024-01-10T08:48:26;100187.38;;;-9.83;90.19
58018;BME280;43810;50.860;19.226;2024-01-10T08:50:52;100191.44;;;-9.72;90.20
58018;BME280;43810;50.860;19.226;2024-01-10T08:53:19;100193.22;;;-9.65;89.67
58018;BME280;43810;50.860;19.226;2024-01-10T08:55:45;100194.84;;;-9.47;89.28
58018;BME280;43810;50.860;19.226;2024-01-10T08:58:29;100194.84;;;-9.31;88.81
58018;BME280;43810;50.860;19.226;2024-01-10T09:01:05;100194.66;;;-9.13;89.44
58018;BME280;43810;50.860;19.226;2024-01-10T09:03:43;100183.53;;;-8.90;90.95
58018;BME280;43810;50.860;19.226;2024-01-10T09:06:19;100192.34;;;-8.68;91.08
58018;BME280;43810;50.860;19.226;2024-01-10T09:09:01;100188.59;;;-8.57;90.06
58018;BME280;43810;50.860;19.226;2024-01-10T09:11:42;100191.78;;;-8.39;90.16
58018;BME280;43810;50.860;19.226;2024-01-10T09:14:13;100182.72;;;-8.27;89.93
58018;BME280;43810;50.860;19.226;2024-01-10T09:16:41;100181.66;;;-8.09;90.56
58018;BME280;43810;50.860;19.226;2024-01-10T09:19:07;100191.97;;;-8.01;90.87
58018;BME280;43810;50.860;19.226;2024-01-10T09:21:33;100195.94;;;-7.91;90.23
58018;BME280;43810;50.860;19.226;2024-01-10T09:23:59;100183.19;;;-7.92;89.65
58018;BME280;43810;50.860;19.226;2024-01-10T09:26:25;100183.31;;;-7.86;89.95
58018;BME280;43810;50.860;19.226;2024-01-10T09:28:51;100180.19;;;-7.73;89.17
58018;BME280;43810;50.860;19.226;2024-01-10T09:31:17;100172.50;;;-7.58;88.46
58018;BME280;43810;50.860;19.226;2024-01-10T09:33:42;100167.84;;;-7.40;88.26
58018;BME280;43810;50.860;19.226;2024-01-10T09:36:09;100179.44;;;-7.36;89.15
58018;BME280;43810;50.860;19.226;2024-01-10T09:38:37;100178.03;;;-7.24;88.19
58018;BME280;43810;50.860;19.226;2024-01-10T09:41:04;100176.16;;;-7.15;87.38
58018;BME280;43810;50.860;19.226;2024-01-10T09:43:30;100167.19;;;-7.05;86.73
58018;BME280;43810;50.860;19.226;2024-01-10T09:46:00;100168.19;;;-6.91;86.47
58018;BME280;43810;50.860;19.226;2024-01-10T09:48:27;100168.91;;;-6.82;85.67
58018;BME280;43810;50.860;19.226;2024-01-10T09:50:55;100161.81;;;-6.65;85.39
58018;BME280;43810;50.860;19.226;2024-01-10T09:53:25;100172.69;;;-6.55;84.90
58018;BME280;43810;50.860;19.226;2024-01-10T09:55:53;100164.31;;;-6.43;85.60
58018;BME280;43810;50.860;19.226;2024-01-10T09:58:25;100161.72;;;-6.28;85.55
58018;BME280;43810;50.860;19.226;2024-01-10T10:00:52;100161.59;;;-6.20;85.36
58018;BME280;43810;50.860;19.226;2024-01-10T10:03:19;100163.00;;;-6.03;84.48
58018;BME280;43810;50.860;19.226;2024-01-10T10:05:45;100157.34;;;-5.91;83.25
58018;BME280;43810;50.860;19.226;2024-01-10T10:08:12;100153.41;;;-5.87;82.77
58018;BME280;43810;50.860;19.226;2024-01-10T10:10:41;100152.31;;;-5.78;83.35
58018;BME280;43810;50.860;19.226;2024-01-10T10:13:10;100155.22;;;-5.67;83.80
58018;BME280;43810;50.860;19.226;2024-01-10T10:16:01;100156.75;;;-5.51;83.66
58018;BME280;43810;50.860;19.226;2024-01-10T10:18:31;100153.31;;;-5.37;83.58
58018;BME280;43810;50.860;19.226;2024-01-10T10:23:32;100167.84;;;-5.14;81.82
58018;BME280;43810;50.860;19.226;2024-01-10T10:25:58;100165.72;;;-5.04;81.03
58018;BME280;43810;50.860;19.226;2024-01-10T10:28:28;100158.16;;;-4.99;81.03
58018;BME280;43810;50.860;19.226;2024-01-10T12:05:13;100072.44;;;-3.69;78.09
58018;BME280;43810;50.860;19.226;2024-01-10T12:07:40;100074.03;;;-3.68;76.79
58018;BME280;43810;50.860;19.226;2024-01-10T12:10:06;100079.66;;;-3.65;77.49
58018;BME280;43810;50.860;19.226;2024-01-10T12:12:32;100080.63;;;-3.59;76.42
58018;BME280;43810;50.860;19.226;2024-01-10T12:14:58;100070.88;;;-3.51;76.16
58018;BME280;43810;50.860;19.226;2024-01-10T12:17:27;100073.03;;;-3.34;76.18
58018;BME280;43810;50.860;19.226;2024-01-10T12:19:53;100077.81;;;-3.25;76.50
58018;BME280;43810;50.860;19.226;2024-01-10T12:22:20;100059.41;;;-3.10;77.39
58018;BME280;43810;50.860;19.226;2024-01-10T12:24:48;100061.75;;;-2.89;76.74
58018;BME280;43810;50.860;19.226;2024-01-10T12:27:18;100067.50;;;-2.67;75.88
58018;BME280;43810;50.860;19.226;2024-01-10T12:29:48;100070.03;;;-2.47;73.84
58018;BME280;43810;50.860;19.226;2024-01-10T12:32:17;100047.94;;;-2.32;74.08
58018;BME280;43810;50.860;19.226;2024-01-10T12:34:43;100047.88;;;-2.18;74.51
58018;BME280;43810;50.860;19.226;2024-01-10T12:37:10;100053.75;;;-1.98;71.82
58018;BME280;43810;50.860;19.226;2024-01-10T12:39:37;100047.78;;;-1.74;71.76
58018;BME280;43810;50.860;19.226;2024-01-10T12:42:04;100052.47;;;-1.58;71.16
58018;BME280;43810;50.860;19.226;2024-01-10T12:44:32;100049.91;;;-1.39;70.54
58018;BME280;43810;50.860;19.226;2024-01-10T12:46:59;100040.81;;;-1.12;69.52
58018;BME280;43810;50.860;19.226;2024-01-10T12:49:25;100035.75;;;-0.89;68.64
58018;BME280;43810;50.860;19.226;2024-01-10T12:51:52;100031.09;;;-0.68;67.14
58018;BME280;43810;50.860;19.226;2024-01-10T12:54:17;100031.81;;;-0.61;66.63
58018;BME280;43810;50.860;19.226;2024-01-10T12:56:43;100030.38;;;-0.57;67.10
58018;BME280;43810;50.860;19.226;2024-01-10T12:59:09;100025.94;;;-0.57;66.02
58018;BME280;43810;50.860;19.226;2024-01-10T13:01:36;100024.50;;;-0.71;66.38
58018;BME280;43810;50.860;19.226;2024-01-10T13:04:02;100031.47;;;-1.01;66.63
58018;BME280;43810;50.860;19.226;2024-01-10T13:06:28;100025.88;;;-1.23;67.56
58018;BME280;43810;50.860;19.226;2024-01-10T13:08:54;100027.78;;;-1.55;67.73
58018;BME280;43810;50.860;19.226;2024-01-10T13:11:20;100022.63;;;-1.86;69.46
58018;BME280;43810;50.860;19.226;2024-01-10T13:13:46;100022.16;;;-2.08;70.90
58018;BME280;43810;50.860;19.226;2024-01-10T13:16:13;100015.06;;;-2.26;71.66
58018;BME280;43810;50.860;19.226;2024-01-10T13:18:39;100009.34;;;-2.41;72.58
58018;BME280;43810;50.860;19.226;2024-01-10T13:21:05;100016.59;;;-2.50;72.52
58018;BME280;43810;50.860;19.226;2024-01-10T13:23:31;100012.47;;;-2.64;73.41
58018;BME280;43810;50.860;19.226;2024-01-10T13:25:59;100014.56;;;-2.86;73.96
58018;BME280;43810;50.860;19.226;2024-01-10T13:28:25;100024.59;;;-2.96;73.19
58018;BME280;43810;50.860;19.226;2024-01-10T13:30:50;100020.19;;;-2.95;74.01
58018;BME280;43810;50.860;19.226;2024-01-10T13:33:17;100017.78;;;-3.04;74.45
58018;BME280;43810;50.860;19.226;2024-01-10T13:35:45;100018.63;;;-3.10;74.89
58018;BME280;43810;50.860;19.226;2024-01-10T13:38:10;100023.84;;;-3.16;75.68
58018;BME280;43810;50.860;19.226;2024-01-10T13:40:36;100011.69;;;-3.29;76.31
58018;BME280;43810;50.860;19.226;2024-01-10T13:43:04;100016.69;;;-3.34;76.82
58018;BME280;43810;50.860;19.226;2024-01-10T13:45:30;100020.69;;;-3.45;75.08
58018;BME280;43810;50.860;19.226;2024-01-10T13:47:56;100019.91;;;-3.52;75.56
58018;BME280;43810;50.860;19.226;2024-01-10T13:50:22;100018.31;;;-3.53;76.31
58018;BME280;43810;50.860;19.226;2024-01-10T13:52:50;100003.69;;;-3.47;77.40
58018;BME280;43810;50.860;19.226;2024-01-10T13:55:16;99999.50;;;-3.48;78.50
58018;BME280;43810;50.860;19.226;2024-01-10T13:57:41;100002.53;;;-3.51;78.02
58018;BME280;43810;50.860;19.226;2024-01-10T14:00:07;100005.91;;;-3.57;76.13
58018;BME280;43810;50.860;19.226;2024-01-10T14:02:35;100003.53;;;-3.65;76.79
58018;BME280;43810;50.860;19.226;2024-01-10T14:05:01;99998.72;;;-3.68;76.67
58018;BME280;43810;50.860;19.226;2024-01-10T14:07:32;99989.72;;;-3.72;76.89
58018;BME280;43810;50.860;19.226;2024-01-10T14:09:58;99990.94;;;-3.75;77.73
58018;BME280;43810;50.860;19.226;2024-01-10T14:12:24;100003.53;;;-3.85;76.83
58018;BME280;43810;50.860;19.226;2024-01-10T14:14:50;99999.31;;;-3.93;76.42
58018;BME280;43810;50.860;19.226;2024-01-10T14:17:16;99992.53;;;-4.00;76.61
58018;BME280;43810;50.860;19.226;2024-01-10T14:19:42;99991.72;;;-4.07;76.75
58018;BME280;43810;50.860;19.226;2024-01-10T14:22:09;100004.69;;;-4.14;76.76